createdAt,value
2023-08-14T00:01:08.333Z,52.26
2023-08-14T00:03:39.472Z,52.21
2023-08-14T00:06:08.636Z,51.85
2023-08-14T00:08:37.486Z,51.42
2023-08-14T00:11:06.684Z,51.64
2023-08-14T00:13:50.866Z,51.44
2023-08-14T00:16:20.391Z,50.94
2023-08-14T00:18:49.287Z,51.07
2023-08-14T00:21:18.526Z,51.57
2023-08-14T00:23:47.410Z,52.37
2023-08-14T00:26:16.736Z,51.98
2023-08-14T00:28:45.581Z,52.27
2023-08-14T00:31:15.049Z,51.59
2023-08-14T00:33:43.854Z,51.21
2023-08-14T00:36:13.398Z,51.10
2023-08-14T00:38:42.255Z,50.96
2023-08-14T00:41:11.477Z,51.74
2023-08-14T00:43:40.254Z,51.01
2023-08-14T00:46:09.792Z,50.71
2023-08-14T00:48:39.410Z,51.73
2023-08-14T00:51:08.638Z,51.65
2023-08-14T00:53:37.541Z,51.11
2023-08-14T00:56:06.793Z,51.55
2023-08-14T00:58:35.660Z,51.79
2023-08-14T01:01:05.181Z,51.26
2023-08-14T01:03:34.128Z,51.10
2023-08-14T01:06:03.574Z,50.95
2023-08-14T01:08:32.436Z,51.63
2023-08-14T01:11:07.445Z,51.49
2023-08-14T01:13:49.829Z,51.50
2023-08-14T01:16:25.126Z,51.37
2023-08-14T01:18:54.552Z,50.84
2023-08-14T01:21:53.497Z,51.01
2023-08-14T01:24:28.024Z,50.71
2023-08-14T01:26:57.175Z,50.22
2023-08-14T01:29:25.923Z,49.94
2023-08-14T01:31:55.110Z,49.61
2023-08-14T01:34:24.746Z,48.97
2023-08-14T01:37:34.447Z,48.16
2023-08-14T01:40:25.398Z,48.03
2023-08-14T01:43:15.443Z,47.79
2023-08-14T01:45:44.274Z,48.71
2023-08-14T01:48:13.481Z,48.39
2023-08-14T01:50:42.264Z,48.18
2023-08-14T01:53:11.483Z,47.75
2023-08-14T01:55:40.367Z,47.39
2023-08-14T01:58:09.558Z,47.66
2023-08-14T02:00:38.956Z,47.44
2023-08-14T02:03:08.406Z,48.00
2023-08-14T02:05:37.352Z,47.78
2023-08-14T02:08:06.732Z,47.48
2023-08-14T02:10:35.663Z,47.45
2023-08-14T02:13:04.974Z,47.26
2023-08-14T02:15:33.753Z,47.03
2023-08-14T02:18:03.106Z,47.18
2023-08-14T02:20:32.064Z,47.48
2023-08-14T02:23:01.574Z,47.19
2023-08-14T02:25:32.424Z,47.79
2023-08-14T02:28:01.622Z,47.36
2023-08-14T02:30:30.651Z,47.46
2023-08-14T02:32:59.998Z,47.65
2023-08-14T02:35:28.896Z,47.21
2023-08-14T02:37:58.695Z,46.74
2023-08-14T02:40:27.856Z,46.64
2023-08-14T02:43:02.705Z,46.54
2023-08-14T02:45:32.076Z,46.10
2023-08-14T02:48:01.473Z,46.20
2023-08-14T02:50:31.382Z,46.47
2023-08-14T02:53:01.018Z,46.24
2023-08-14T02:55:30.019Z,46.52
2023-08-14T02:57:59.322Z,46.08
2023-08-14T03:00:28.270Z,46.32
2023-08-14T03:02:57.513Z,45.88
2023-08-14T03:05:26.382Z,45.71
2023-08-14T03:07:55.425Z,45.45
2023-08-14T03:10:26.927Z,45.55
2023-08-14T03:12:56.600Z,44.90
2023-08-14T03:15:25.562Z,45.42
2023-08-14T03:17:54.677Z,45.34
2023-08-14T03:20:23.482Z,44.99
2023-08-14T03:22:52.651Z,45.68
2023-08-14T03:25:21.769Z,45.43
2023-08-14T03:27:50.950Z,45.54
2023-08-14T03:30:19.782Z,44.69
2023-08-14T03:32:49.086Z,44.69
2023-08-14T03:35:18.210Z,44.40
2023-08-14T03:37:47.347Z,44.45
2023-08-14T03:40:16.330Z,43.47
2023-08-14T03:42:45.531Z,43.63
2023-08-14T03:45:14.373Z,44.22
2023-08-14T03:47:43.669Z,43.98
2023-08-14T03:50:12.603Z,44.25
2023-08-14T03:52:42.161Z,43.94
2023-08-14T03:55:10.939Z,43.86
2023-08-14T03:57:39.982Z,44.54
2023-08-14T04:00:09.585Z,44.86
2023-08-14T04:02:45.323Z,44.69
2023-08-14T04:05:14.158Z,45.14
2023-08-14T04:07:43.188Z,45.29
2023-08-14T04:10:12.012Z,45.40
2023-08-14T04:12:41.042Z,45.45
2023-08-14T04:15:16.736Z,45.07
2023-08-14T04:17:46.623Z,45.35
2023-08-14T04:20:15.583Z,45.15
2023-08-14T04:22:44.586Z,45.30
2023-08-14T04:25:13.286Z,45.08
2023-08-14T04:27:42.342Z,45.38
2023-08-14T04:30:11.649Z,45.61
2023-08-14T04:32:41.394Z,45.53
2023-08-14T04:35:10.640Z,45.35
2023-08-14T04:37:40.634Z,45.24
2023-08-14T04:40:10.324Z,45.02
2023-08-14T04:42:41.286Z,44.86
2023-08-14T04:45:11.414Z,44.90
2023-08-14T04:47:40.475Z,45.18
2023-08-14T04:50:11.077Z,45.44
2023-08-14T04:52:40.103Z,45.64
2023-08-14T04:55:09.419Z,45.77
2023-08-14T04:57:40.924Z,46.00
2023-08-14T05:00:11.752Z,46.47
2023-08-14T05:02:41.527Z,46.04
2023-08-14T05:05:10.598Z,46.22
2023-08-14T05:07:39.650Z,46.48
2023-08-14T05:10:08.644Z,45.92
2023-08-14T05:12:37.723Z,46.00
2023-08-14T05:15:07.120Z,45.55
2023-08-14T05:17:36.674Z,45.89
2023-08-14T05:20:06.033Z,45.70
2023-08-14T05:22:35.071Z,45.28
2023-08-14T05:25:04.018Z,45.29
2023-08-14T05:27:40.190Z,45.14
2023-08-14T05:30:09.652Z,45.38
2023-08-14T05:32:39.274Z,45.24
2023-08-14T05:35:08.773Z,45.33
2023-08-14T05:37:37.881Z,45.31
2023-08-14T05:40:07.332Z,45.24
2023-08-14T05:42:36.364Z,45.96
2023-08-14T05:45:05.503Z,45.31
2023-08-14T05:47:34.524Z,45.61
2023-08-14T05:50:03.312Z,45.38
2023-08-14T05:52:32.359Z,45.46
2023-08-14T05:55:01.126Z,45.13
2023-08-14T05:57:30.140Z,44.97
2023-08-14T05:59:58.846Z,45.72
2023-08-14T06:02:27.954Z,45.71
2023-08-14T06:04:56.719Z,45.27
2023-08-14T06:07:25.971Z,45.02
2023-08-14T06:09:54.767Z,45.87
2023-08-14T06:12:24.036Z,45.76
2023-08-14T06:14:52.912Z,45.76
2023-08-14T06:17:22.038Z,45.85
2023-08-14T06:19:50.800Z,45.90
2023-08-14T06:22:20.586Z,46.35
2023-08-14T06:24:49.418Z,46.22
2023-08-14T06:27:18.650Z,46.03
2023-08-14T06:29:47.472Z,46.57
2023-08-14T06:32:17.141Z,45.87
2023-08-14T06:34:46.092Z,47.51
2023-08-14T06:37:15.182Z,48.55
2023-08-14T06:39:44.073Z,47.32
2023-08-14T06:42:13.141Z,46.42
2023-08-14T06:44:41.972Z,46.62
2023-08-14T06:47:11.114Z,46.34
2023-08-14T06:49:39.901Z,45.94
2023-08-14T06:52:09.036Z,45.67
2023-08-14T06:54:37.841Z,44.98
2023-08-14T06:57:07.398Z,44.60
2023-08-14T06:59:36.389Z,44.75
2023-08-14T07:02:05.531Z,44.87
2023-08-14T07:04:34.322Z,44.67
2023-08-14T07:07:03.537Z,44.37
2023-08-14T07:09:32.310Z,44.39
2023-08-14T07:12:01.375Z,44.19
2023-08-14T07:14:31.105Z,43.97
2023-08-14T07:17:00.460Z,44.00
2023-08-14T07:19:29.222Z,43.40
2023-08-14T07:21:58.372Z,43.60
2023-08-14T07:24:27.043Z,42.98
2023-08-14T07:26:56.171Z,43.22
2023-08-14T07:29:24.920Z,43.13
2023-08-14T07:31:54.007Z,42.97
2023-08-14T07:34:22.763Z,42.99
2023-08-14T07:36:51.883Z,43.23
2023-08-14T07:39:20.721Z,43.01
2023-08-14T07:41:49.784Z,43.01
2023-08-14T07:44:18.567Z,43.12
2023-08-14T07:46:47.690Z,42.90
2023-08-14T07:49:16.431Z,42.88
2023-08-14T07:51:45.506Z,43.62
2023-08-14T07:54:14.220Z,43.06
2023-08-14T07:56:46.092Z,43.43
2023-08-14T07:59:15.799Z,43.13
2023-08-14T08:01:45.011Z,43.07
2023-08-14T08:04:26.528Z,43.00
2023-08-14T08:06:56.325Z,42.88
2023-08-14T08:09:25.100Z,42.75
2023-08-14T08:11:54.211Z,42.82
2023-08-14T08:14:22.978Z,42.94
2023-08-14T08:16:52.107Z,43.24
2023-08-14T08:19:22.806Z,43.26
2023-08-14T08:21:52.078Z,43.56
2023-08-14T08:24:21.169Z,43.56
2023-08-14T08:26:50.318Z,44.08
2023-08-14T08:29:18.968Z,44.11
2023-08-14T08:31:48.414Z,44.04
2023-08-14T08:34:17.174Z,43.93
2023-08-14T08:36:46.278Z,44.02
2023-08-14T08:39:14.981Z,43.98
2023-08-14T08:41:46.340Z,44.28
2023-08-14T08:44:23.288Z,43.92
2023-08-14T08:47:01.305Z,44.10
2023-08-14T08:49:30.327Z,43.64
2023-08-14T08:51:59.405Z,43.73
2023-08-14T08:54:28.516Z,44.07
2023-08-14T08:56:58.148Z,44.01
2023-08-14T08:59:30.240Z,44.49
2023-08-14T09:01:59.414Z,44.25
2023-08-14T09:04:28.386Z,44.45
2023-08-14T09:06:57.662Z,44.41
2023-08-14T09:09:26.986Z,44.28
2023-08-14T09:11:56.119Z,44.48
2023-08-14T09:14:25.341Z,44.90
2023-08-14T09:16:59.825Z,45.12
2023-08-14T09:19:29.427Z,45.04
2023-08-14T09:21:58.593Z,45.16
2023-08-14T09:24:27.329Z,44.36
2023-08-14T09:26:56.354Z,44.75
2023-08-14T09:29:25.053Z,44.57
2023-08-14T09:31:54.808Z,44.56
2023-08-14T09:34:23.754Z,44.73
2023-08-14T09:36:52.903Z,44.41
2023-08-14T09:39:21.648Z,44.72
2023-08-14T09:41:50.770Z,44.45
2023-08-14T09:44:25.609Z,44.47
2023-08-14T09:46:56.354Z,44.80
2023-08-14T09:49:27.209Z,44.78
2023-08-14T09:51:57.173Z,44.52
2023-08-14T09:54:35.612Z,43.95
2023-08-14T09:57:09.660Z,44.22
2023-08-14T09:59:38.860Z,43.92
2023-08-14T10:02:14.469Z,44.39
2023-08-14T10:04:46.650Z,43.99
2023-08-14T10:07:15.981Z,43.67
2023-08-14T10:10:06.420Z,42.68
2023-08-14T10:12:39.610Z,42.79
2023-08-14T10:15:12.300Z,43.32
2023-08-14T10:18:00.433Z,43.88
2023-08-14T10:20:31.623Z,43.54
2023-08-14T10:23:00.870Z,43.53
2023-08-14T10:25:29.663Z,44.27
2023-08-14T10:27:58.946Z,44.24
2023-08-14T10:30:27.835Z,44.49
2023-08-14T10:32:57.331Z,44.41
2023-08-14T10:35:27.049Z,44.07
2023-08-14T10:38:09.621Z,43.89
2023-08-14T10:40:40.111Z,43.94
2023-08-14T10:43:09.271Z,44.08
2023-08-14T10:45:38.084Z,44.01
2023-08-14T10:48:10.903Z,43.66
2023-08-14T10:50:39.839Z,43.47
2023-08-14T10:53:11.689Z,43.99
2023-08-14T10:55:48.208Z,43.90
2023-08-14T10:58:38.321Z,44.11
2023-08-14T11:01:11.197Z,44.32
2023-08-14T11:04:09.781Z,43.46
2023-08-14T11:07:03.902Z,42.96
2023-08-14T11:09:37.024Z,42.73
2023-08-14T11:12:11.432Z,42.93
2023-08-14T11:14:41.864Z,42.69
2023-08-14T11:17:10.979Z,43.28
2023-08-14T11:19:40.370Z,43.33
2023-08-14T11:22:09.372Z,43.80
2023-08-14T11:24:39.087Z,43.28
2023-08-14T11:27:08.237Z,43.60
2023-08-14T11:29:51.736Z,43.53
2023-08-14T11:32:21.980Z,43.35
2023-08-14T11:34:52.887Z,43.22
2023-08-14T11:37:21.636Z,43.21
2023-08-14T11:39:50.777Z,43.32
2023-08-14T11:42:20.323Z,43.64
2023-08-14T11:44:50.022Z,43.69
2023-08-14T11:47:19.222Z,43.75
2023-08-14T11:49:49.090Z,43.69
2023-08-14T11:52:18.101Z,44.09
2023-08-14T11:54:47.731Z,43.89
2023-08-14T11:57:16.542Z,42.79
2023-08-14T11:59:46.575Z,42.79
2023-08-14T12:02:15.239Z,43.04
2023-08-14T12:04:44.298Z,42.82
2023-08-14T12:07:13.042Z,42.69
2023-08-14T12:09:42.107Z,42.33
2023-08-14T12:12:12.071Z,41.82
2023-08-14T12:14:46.291Z,41.45
2023-08-14T12:17:20.449Z,41.11
2023-08-14T12:19:51.448Z,41.28
2023-08-14T12:22:23.962Z,41.55
2023-08-14T12:24:53.035Z,41.04
2023-08-14T12:27:24.097Z,41.18
2023-08-14T12:29:53.834Z,40.96
2023-08-14T12:32:23.356Z,41.17
2023-08-14T12:34:52.408Z,41.16
2023-08-14T12:37:21.757Z,40.95
2023-08-14T12:39:57.334Z,40.55
2023-08-14T12:42:26.046Z,40.56
2023-08-14T12:44:55.193Z,40.51
2023-08-14T12:47:24.513Z,40.04
2023-08-14T12:49:54.182Z,39.64
2023-08-14T12:52:22.894Z,38.78
2023-08-14T12:55:04.494Z,39.12
2023-08-14T12:57:34.539Z,39.12
2023-08-14T13:00:05.527Z,39.45
2023-08-14T13:02:34.397Z,39.78
2023-08-14T13:05:04.507Z,40.42
2023-08-14T13:07:33.712Z,38.99
2023-08-14T13:10:02.874Z,39.20
2023-08-14T13:12:31.611Z,39.41
2023-08-14T13:15:00.715Z,39.23
2023-08-14T13:17:29.579Z,39.84
2023-08-14T13:19:58.728Z,39.72
2023-08-14T13:22:28.025Z,40.03
2023-08-14T13:24:57.197Z,39.81
2023-08-14T13:27:26.000Z,39.24
2023-08-14T13:29:55.360Z,39.79
2023-08-14T13:32:24.190Z,39.69
2023-08-14T13:34:53.299Z,39.11
2023-08-14T13:37:22.024Z,39.08
2023-08-14T13:39:51.190Z,39.13
2023-08-14T13:42:20.241Z,39.82
2023-08-14T13:44:49.961Z,39.90
2023-08-14T13:47:18.842Z,39.53
2023-08-14T13:49:48.069Z,39.92
2023-08-14T13:52:16.899Z,39.96
2023-08-14T13:54:46.319Z,39.77
2023-08-14T13:57:15.042Z,39.78
2023-08-14T13:59:44.089Z,39.69
2023-08-14T14:02:14.453Z,40.05
2023-08-14T14:04:43.819Z,40.21
2023-08-14T14:07:14.390Z,39.85
2023-08-14T14:09:43.690Z,39.66
2023-08-14T14:12:12.508Z,39.89
2023-08-14T14:14:41.618Z,40.06
2023-08-14T14:17:10.447Z,40.01
2023-08-14T14:19:41.292Z,39.98
2023-08-14T14:22:10.084Z,40.00
2023-08-14T14:24:39.375Z,38.73
2023-08-14T14:27:08.752Z,39.45
2023-08-14T14:29:37.832Z,39.37
2023-08-14T14:32:07.057Z,39.38
2023-08-14T14:34:36.224Z,38.50
2023-08-14T14:37:05.126Z,37.55
2023-08-14T14:39:34.354Z,37.67
2023-08-14T14:42:03.112Z,37.95
2023-08-14T14:44:32.313Z,37.09
2023-08-14T14:47:01.183Z,37.36
2023-08-14T14:49:30.434Z,37.58
2023-08-14T14:52:02.639Z,37.95
2023-08-14T14:54:31.766Z,37.77
2023-08-14T14:57:00.527Z,38.22
2023-08-14T14:59:29.636Z,37.27
2023-08-14T15:01:58.499Z,37.57
2023-08-14T15:04:30.272Z,37.75
2023-08-14T15:06:59.286Z,37.56
2023-08-14T15:09:28.332Z,38.05
2023-08-14T15:11:57.067Z,38.12
2023-08-14T15:14:26.165Z,37.64
2023-08-14T15:16:54.794Z,37.82
2023-08-14T15:19:23.920Z,37.67
2023-08-14T15:21:52.571Z,37.42
2023-08-14T15:24:21.541Z,37.27
2023-08-14T15:26:52.070Z,37.73
2023-08-14T15:29:21.484Z,37.72
2023-08-14T15:31:50.177Z,37.88
2023-08-14T15:34:19.232Z,37.78
2023-08-14T15:36:47.963Z,37.64
2023-08-14T15:39:16.920Z,38.06
2023-08-14T15:41:45.839Z,38.42
2023-08-14T15:44:14.923Z,38.62
2023-08-14T15:46:43.643Z,39.11
2023-08-14T15:49:12.931Z,39.45
2023-08-14T15:51:41.734Z,39.17
2023-08-14T15:54:10.765Z,39.28
2023-08-14T15:56:39.470Z,38.75
2023-08-14T15:59:08.547Z,39.26
2023-08-14T16:01:37.210Z,38.74
2023-08-14T16:04:06.623Z,39.43
2023-08-14T16:06:35.488Z,39.33
2023-08-14T16:09:04.782Z,39.65
2023-08-14T16:11:33.537Z,39.72
2023-08-14T16:14:02.559Z,39.54
2023-08-14T16:16:31.274Z,39.64
2023-08-14T16:19:00.480Z,40.03
2023-08-14T16:21:29.350Z,39.67
2023-08-14T16:23:58.569Z,40.16
2023-08-14T16:26:27.298Z,40.15
2023-08-14T16:28:56.219Z,40.35
2023-08-14T16:31:24.970Z,40.59
2023-08-14T16:33:54.293Z,40.48
2023-08-14T16:36:22.941Z,40.53
2023-08-14T16:38:51.995Z,40.91
2023-08-14T16:41:20.590Z,41.79
2023-08-14T16:43:49.626Z,42.13
2023-08-14T16:46:18.410Z,41.99
2023-08-14T16:48:48.277Z,42.37
2023-08-14T16:51:16.895Z,42.70
2023-08-14T16:53:45.909Z,42.58
2023-08-14T16:56:14.703Z,42.89
2023-08-14T16:58:43.770Z,43.04
2023-08-14T17:01:12.409Z,42.95
2023-08-14T17:03:41.482Z,43.17
2023-08-14T17:06:10.211Z,42.80
2023-08-14T17:08:39.419Z,43.45
2023-08-14T17:11:08.238Z,42.83
2023-08-14T17:13:37.213Z,42.66
2023-08-14T17:16:09.496Z,42.99
2023-08-14T17:18:38.591Z,42.84
2023-08-14T17:21:07.359Z,42.85
2023-08-14T17:23:36.390Z,42.87
2023-08-14T17:26:05.893Z,42.77
2023-08-14T17:28:34.989Z,42.98
2023-08-14T17:31:03.769Z,42.78
2023-08-14T17:33:33.083Z,42.71
2023-08-14T17:36:01.778Z,42.72
2023-08-14T17:38:30.837Z,42.77
2023-08-14T17:40:59.575Z,42.97
2023-08-14T17:43:28.743Z,42.68
2023-08-14T17:45:57.433Z,42.86
2023-08-14T17:48:26.477Z,42.86
2023-08-14T17:50:55.357Z,43.07
2023-08-14T17:53:26.113Z,43.42
2023-08-14T17:55:54.991Z,43.53
2023-08-14T17:58:24.346Z,43.39
2023-08-14T18:00:53.239Z,43.79
2023-08-14T18:03:22.512Z,43.83
2023-08-14T18:05:52.126Z,44.10
2023-08-14T18:08:21.386Z,44.35
2023-08-14T18:10:50.289Z,44.44
2023-08-14T18:13:19.475Z,44.93
2023-08-14T18:15:50.058Z,44.82
2023-08-14T18:18:19.271Z,45.13
2023-08-14T18:20:53.520Z,45.36
2023-08-14T18:23:22.831Z,45.42
2023-08-14T18:25:54.913Z,45.54
2023-08-14T18:28:24.492Z,46.09
2023-08-14T18:30:53.439Z,46.06
2023-08-14T18:33:22.536Z,46.25
2023-08-14T18:35:51.396Z,45.99
2023-08-14T18:38:20.670Z,46.19
2023-08-14T18:40:49.759Z,46.12
2023-08-14T18:43:18.917Z,46.47
2023-08-14T18:45:47.965Z,46.18
2023-08-14T18:48:17.619Z,46.46
2023-08-14T18:50:46.393Z,46.39
2023-08-14T18:53:15.928Z,46.41
2023-08-14T18:55:44.640Z,46.17
2023-08-14T18:58:14.652Z,46.86
2023-08-14T19:00:43.444Z,46.99
2023-08-14T19:03:12.655Z,47.73
2023-08-14T19:05:41.581Z,48.32
2023-08-14T19:08:10.747Z,48.75
2023-08-14T19:10:39.512Z,48.74
2023-08-14T19:13:08.764Z,48.83
2023-08-14T19:15:37.586Z,48.47
2023-08-14T19:18:06.811Z,48.71
2023-08-14T19:20:35.648Z,49.04
2023-08-14T19:23:04.843Z,48.93
2023-08-14T19:25:33.735Z,49.37
2023-08-14T19:28:11.407Z,49.13
2023-08-14T19:30:45.164Z,49.51
2023-08-14T19:33:14.420Z,49.07
2023-08-14T19:35:44.341Z,48.92
2023-08-14T19:38:13.313Z,48.97
2023-08-14T19:40:41.940Z,48.99
2023-08-14T19:43:11.045Z,48.87
2023-08-14T19:45:39.654Z,48.81
2023-08-14T19:48:08.685Z,48.62
2023-08-14T19:50:37.356Z,48.65
2023-08-14T19:53:06.243Z,48.52
2023-08-14T19:55:39.092Z,48.41
2023-08-14T19:58:08.365Z,48.09
2023-08-14T20:00:37.115Z,47.77
2023-08-14T20:03:06.383Z,47.64
2023-08-14T20:05:35.236Z,47.80
2023-08-14T20:08:04.493Z,47.55
2023-08-14T20:10:33.080Z,47.41
2023-08-14T20:13:01.994Z,47.29
2023-08-14T20:15:30.589Z,47.15
2023-08-14T20:17:59.702Z,46.90
2023-08-14T20:20:28.552Z,46.55
2023-08-14T20:22:58.049Z,46.24
2023-08-14T20:25:28.990Z,46.20
2023-08-14T20:27:57.989Z,46.38
2023-08-14T20:30:26.690Z,45.92
2023-08-14T20:32:55.803Z,45.31
2023-08-14T20:35:24.519Z,45.15
2023-08-14T20:37:53.539Z,44.92
2023-08-14T20:40:22.231Z,44.75
2023-08-14T20:42:51.133Z,44.59
2023-08-14T20:45:21.030Z,44.32
2023-08-14T20:47:50.024Z,44.44
2023-08-14T20:50:18.785Z,44.08
2023-08-14T20:52:47.845Z,43.77
2023-08-14T20:55:16.505Z,43.17
2023-08-14T20:57:45.448Z,43.05
2023-08-14T21:00:14.424Z,43.43
2023-08-14T21:02:43.889Z,42.89
2023-08-14T21:05:12.689Z,43.21
2023-08-14T21:07:41.726Z,43.15
2023-08-14T21:10:10.422Z,43.20
2023-08-14T21:12:39.535Z,42.86
2023-08-14T21:15:08.567Z,42.89
2023-08-14T21:17:37.832Z,42.47
2023-08-14T21:20:07.221Z,42.67
2023-08-14T21:22:36.412Z,42.49
2023-08-14T21:25:05.522Z,42.49
2023-08-14T21:27:34.587Z,42.85
2023-08-14T21:30:03.506Z,42.33
2023-08-14T21:32:32.549Z,42.89
2023-08-14T21:35:01.342Z,42.98
2023-08-14T21:37:30.397Z,43.14
2023-08-14T21:39:59.024Z,43.17
2023-08-14T21:42:28.016Z,43.41
2023-08-14T21:44:56.898Z,43.37
2023-08-14T21:47:25.892Z,43.32
2023-08-14T21:49:54.595Z,43.41
2023-08-14T21:52:23.683Z,43.09
2023-08-14T21:54:52.760Z,42.97
2023-08-14T21:57:22.092Z,42.63
2023-08-14T21:59:51.678Z,42.57
2023-08-14T22:02:21.679Z,42.53
2023-08-14T22:04:51.886Z,42.41
2023-08-14T22:07:23.039Z,42.56
2023-08-14T22:09:51.782Z,42.21
2023-08-14T22:12:20.853Z,42.28
2023-08-14T22:14:49.580Z,42.48
2023-08-14T22:17:20.118Z,42.36
2023-08-14T22:19:52.790Z,42.23
2023-08-14T22:22:24.114Z,42.57
2023-08-14T22:24:52.952Z,42.33
2023-08-14T22:27:22.649Z,42.31
2023-08-14T22:29:53.219Z,42.29
2023-08-14T22:32:22.191Z,42.15
2023-08-14T22:34:50.856Z,42.65
2023-08-14T22:37:20.102Z,42.70
2023-08-14T22:39:48.975Z,42.53
2023-08-14T22:42:18.056Z,42.54
2023-08-14T22:44:46.789Z,42.80
2023-08-14T22:47:15.853Z,42.88
2023-08-14T22:49:44.629Z,42.87
2023-08-14T22:52:13.902Z,43.16
2023-08-14T22:54:42.578Z,43.01
2023-08-14T22:57:11.637Z,43.15
2023-08-14T22:59:40.349Z,43.27
2023-08-14T23:02:09.487Z,43.09
2023-08-14T23:04:38.174Z,43.27
2023-08-14T23:07:07.548Z,43.32
2023-08-14T23:09:36.392Z,43.60
2023-08-14T23:12:05.594Z,43.37
2023-08-14T23:14:34.233Z,43.79
2023-08-14T23:17:03.329Z,44.21
2023-08-14T23:19:32.091Z,44.43
2023-08-14T23:22:01.123Z,44.46
2023-08-14T23:24:29.877Z,44.90
2023-08-14T23:26:59.304Z,44.85
2023-08-14T23:29:28.107Z,44.51
2023-08-14T23:31:57.155Z,44.23
2023-08-14T23:34:28.166Z,44.33
2023-08-14T23:36:58.576Z,43.98
2023-08-14T23:39:27.395Z,44.11
2023-08-14T23:41:56.447Z,44.26
2023-08-14T23:44:25.176Z,44.31
2023-08-14T23:46:54.228Z,44.46
2023-08-14T23:49:22.967Z,44.58
2023-08-14T23:51:52.046Z,44.82
2023-08-14T23:54:20.995Z,44.69
2023-08-14T23:56:50.065Z,45.17
2023-08-14T23:59:18.900Z,45.30
